createdAt,value
2022-12-18T00:02:15.071Z,25.67
2022-12-18T00:04:41.904Z,27.33
2022-12-18T00:07:08.763Z,22.52
2022-12-18T00:09:40.252Z,20.90
2022-12-18T00:14:44.483Z,19.23
2022-12-18T00:17:11.253Z,21.40
2022-12-18T00:19:38.025Z,22.57
2022-12-18T00:22:04.890Z,24.67
2022-12-18T00:24:31.805Z,21.90
2022-12-18T00:26:58.607Z,23.33
2022-12-18T00:29:25.468Z,28.15
2022-12-18T00:31:52.354Z,26.20
2022-12-18T00:34:19.180Z,24.50
2022-12-18T00:36:48.575Z,26.17
2022-12-18T00:39:15.350Z,26.45
2022-12-18T00:42:00.906Z,28.92
2022-12-18T00:44:27.692Z,25.05
2022-12-18T00:46:54.497Z,23.88
2022-12-18T00:49:21.741Z,25.20
2022-12-18T00:51:49.025Z,27.38
2022-12-18T00:54:16.939Z,27.60
2022-12-18T00:56:50.988Z,27.43
2022-12-18T00:59:19.029Z,29.15
2022-12-18T01:01:46.777Z,24.85
2022-12-18T01:04:14.340Z,21.52
2022-12-18T01:06:41.383Z,25.10
2022-12-18T01:09:08.208Z,25.70
2022-12-18T01:11:34.957Z,26.33
2022-12-18T01:14:02.078Z,27.73
2022-12-18T01:16:28.857Z,27.20
2022-12-18T01:18:56.142Z,25.83
2022-12-18T01:21:24.132Z,25.48
2022-12-18T01:23:56.011Z,27.05
2022-12-18T01:26:23.554Z,24.70
2022-12-18T01:28:50.465Z,25.90
2022-12-18T01:31:23.839Z,25.08
2022-12-18T01:33:52.144Z,23.55
2022-12-18T01:36:21.835Z,26.83
2022-12-18T01:38:49.230Z,23.55
2022-12-18T01:41:18.558Z,22.42
2022-12-18T01:44:23.212Z,19.95
2022-12-18T01:46:49.934Z,23.52
2022-12-18T01:49:16.752Z,22.80
2022-12-18T01:51:43.467Z,21.07
2022-12-18T01:54:10.467Z,19.95
2022-12-18T01:56:38.043Z,19.80
2022-12-18T01:59:09.148Z,22.42
2022-12-18T02:01:38.910Z,19.75
2022-12-18T02:04:23.671Z,20.13
2022-12-18T02:07:11.988Z,21.58
2022-12-18T02:09:51.511Z,17.70
2022-12-18T02:12:22.345Z,18.60
2022-12-18T02:15:07.079Z,23.57
2022-12-18T02:17:43.119Z,23.00
2022-12-18T02:20:27.840Z,19.67
2022-12-18T02:23:22.150Z,19.83
2022-12-18T02:26:12.641Z,22.52
2022-12-18T02:28:54.887Z,20.80
2022-12-18T02:31:29.181Z,24.17
2022-12-18T02:34:03.176Z,20.10
2022-12-18T02:36:32.085Z,20.10
2022-12-18T02:39:00.803Z,21.63
2022-12-18T02:41:29.434Z,20.55
2022-12-18T02:44:03.084Z,22.33
2022-12-18T02:46:38.957Z,24.90
2022-12-18T02:49:15.011Z,25.73
2022-12-18T02:51:53.073Z,24.38
2022-12-18T02:54:37.299Z,24.77
2022-12-18T02:57:16.017Z,23.85
2022-12-18T02:59:59.124Z,22.45
2022-12-18T03:02:47.294Z,19.08
2022-12-18T03:05:34.929Z,18.95
2022-12-18T03:08:09.478Z,25.25
2022-12-18T03:10:59.716Z,25.35
2022-12-18T03:13:32.055Z,24.97
2022-12-18T03:16:00.919Z,24.88
2022-12-18T03:18:38.531Z,25.83
2022-12-18T03:21:07.419Z,21.65
2022-12-18T03:23:41.525Z,26.08
2022-12-18T03:26:14.852Z,23.20
2022-12-18T03:28:48.268Z,26.40
2022-12-18T03:31:16.359Z,21.45
2022-12-18T03:33:47.096Z,24.02
2022-12-18T03:36:13.996Z,25.23
2022-12-18T03:38:40.792Z,26.45
2022-12-18T03:41:24.015Z,26.63
2022-12-18T03:44:17.411Z,25.38
2022-12-18T03:47:16.245Z,24.17
2022-12-18T03:49:51.502Z,22.45
2022-12-18T03:52:32.486Z,21.65
2022-12-18T03:55:00.707Z,24.58
2022-12-18T03:57:30.591Z,20.13
2022-12-18T04:00:07.878Z,24.60
2022-12-18T04:02:35.968Z,21.85
2022-12-18T04:05:06.490Z,22.85
2022-12-18T04:07:34.019Z,22.48
2022-12-18T04:10:02.386Z,21.58
2022-12-18T04:12:30.998Z,21.92
2022-12-18T04:14:57.926Z,23.08
2022-12-18T04:17:24.852Z,21.67
2022-12-18T04:19:51.731Z,22.48
2022-12-18T04:22:18.769Z,20.40
2022-12-18T04:24:45.550Z,19.90
2022-12-18T04:27:12.298Z,20.92
2022-12-18T04:29:39.015Z,18.83
2022-12-18T04:32:06.015Z,17.17
2022-12-18T04:34:32.747Z,18.05
2022-12-18T04:36:59.528Z,17.60
2022-12-18T04:39:26.328Z,19.77
2022-12-18T04:41:53.467Z,18.77
2022-12-18T04:44:20.244Z,16.40
2022-12-18T04:46:47.145Z,15.73
2022-12-18T04:49:14.035Z,16.65
2022-12-18T04:51:40.799Z,17.20
2022-12-18T04:54:07.554Z,20.15
2022-12-18T04:56:34.355Z,19.17
2022-12-18T04:59:01.084Z,18.73
2022-12-18T05:01:34.030Z,21.77
2022-12-18T05:04:02.330Z,24.30
2022-12-18T05:06:29.167Z,22.90
2022-12-18T05:08:56.103Z,22.67
2022-12-18T05:11:22.913Z,20.27
2022-12-18T05:13:49.616Z,23.65
2022-12-18T05:16:16.550Z,21.52
2022-12-18T05:18:43.523Z,21.40
2022-12-18T05:21:10.349Z,21.80
2022-12-18T05:23:37.856Z,21.38
2022-12-18T05:26:07.245Z,19.27
2022-12-18T05:28:35.799Z,19.92
2022-12-18T05:31:04.287Z,18.83
2022-12-18T05:33:33.322Z,18.48
2022-12-18T05:36:02.068Z,17.08
2022-12-18T05:38:31.040Z,20.27
2022-12-18T05:40:58.392Z,20.58
2022-12-18T05:43:26.855Z,22.63
2022-12-18T05:45:54.690Z,19.58
2022-12-18T05:48:21.956Z,24.45
2022-12-18T05:50:49.888Z,23.17
2022-12-18T05:53:18.569Z,23.05
2022-12-18T05:55:45.590Z,22.55
2022-12-18T05:58:13.671Z,20.13
2022-12-18T06:00:43.868Z,22.95
2022-12-18T06:03:12.907Z,25.42
2022-12-18T06:05:42.896Z,22.77
2022-12-18T06:08:10.597Z,22.50
2022-12-18T06:10:37.795Z,19.48
2022-12-18T06:13:05.681Z,22.15
2022-12-18T06:15:33.086Z,24.38
2022-12-18T06:18:01.557Z,22.95
2022-12-18T06:20:33.243Z,20.25
2022-12-18T06:23:00.779Z,21.17
2022-12-18T06:25:27.785Z,22.65
2022-12-18T06:27:54.483Z,23.60
2022-12-18T06:30:21.617Z,21.73
2022-12-18T06:32:53.152Z,22.98
2022-12-18T06:35:23.220Z,22.63
2022-12-18T06:37:49.946Z,23.08
2022-12-18T06:40:17.630Z,22.05
2022-12-18T06:42:44.350Z,22.65
2022-12-18T06:45:12.338Z,21.20
2022-12-18T06:47:39.176Z,19.85
2022-12-18T06:50:06.564Z,22.77
2022-12-18T06:52:34.498Z,20.77
2022-12-18T06:55:01.571Z,21.37
2022-12-18T06:57:28.384Z,21.85
2022-12-18T06:59:55.434Z,21.98
2022-12-18T07:02:22.288Z,22.20
2022-12-18T07:04:50.471Z,21.27
2022-12-18T07:07:17.274Z,19.90
2022-12-18T07:09:44.035Z,19.63
2022-12-18T07:12:10.848Z,18.27
2022-12-18T07:14:37.591Z,19.25
2022-12-18T07:17:04.436Z,22.48
2022-12-18T07:19:32.595Z,22.25
2022-12-18T07:21:59.294Z,21.30
2022-12-18T07:24:26.010Z,20.77
2022-12-18T07:26:52.783Z,22.02
2022-12-18T07:29:19.612Z,19.08
2022-12-18T07:31:46.724Z,19.17
2022-12-18T07:34:15.580Z,21.63
2022-12-18T07:36:42.576Z,21.90
2022-12-18T07:39:09.425Z,20.98
2022-12-18T07:41:36.115Z,21.33
2022-12-18T07:44:02.874Z,21.60
2022-12-18T07:46:29.664Z,22.25
2022-12-18T07:48:56.564Z,19.90
2022-12-18T07:51:23.304Z,19.88
2022-12-18T07:53:52.454Z,19.58
2022-12-18T07:56:28.651Z,19.77
2022-12-18T07:58:57.294Z,18.70
2022-12-18T08:01:24.348Z,19.00
2022-12-18T08:03:52.189Z,18.27
2022-12-18T08:06:22.155Z,17.35
2022-12-18T08:08:52.963Z,18.20
2022-12-18T08:11:19.891Z,17.25
2022-12-18T08:13:48.167Z,17.80
2022-12-18T08:16:15.198Z,17.73
2022-12-18T08:18:42.131Z,20.83
2022-12-18T08:21:22.198Z,19.73
2022-12-18T08:23:50.300Z,17.73
2022-12-18T08:26:18.588Z,17.60
2022-12-18T08:28:46.112Z,20.40
2022-12-18T08:31:13.154Z,20.77
2022-12-18T08:33:41.131Z,20.48
2022-12-18T08:36:09.912Z,22.60
2022-12-18T08:38:36.827Z,20.98
2022-12-18T08:41:08.885Z,20.98
2022-12-18T08:43:54.229Z,20.80
2022-12-18T08:46:22.906Z,22.73
2022-12-18T08:48:51.799Z,21.75
2022-12-18T08:51:19.273Z,19.20
2022-12-18T08:53:46.564Z,22.80
2022-12-18T08:56:14.938Z,22.23
2022-12-18T08:58:43.346Z,26.25
2022-12-18T09:01:12.655Z,23.80
2022-12-18T09:03:40.754Z,23.43
2022-12-18T09:06:08.426Z,22.13
2022-12-18T09:08:35.638Z,24.23
2022-12-18T09:11:02.888Z,20.70
2022-12-18T09:13:29.866Z,21.70
2022-12-18T09:15:56.772Z,21.33
2022-12-18T09:18:24.614Z,21.65
2022-12-18T09:20:53.337Z,21.20
2022-12-18T09:23:20.393Z,23.55
2022-12-18T09:25:47.513Z,22.70
2022-12-18T09:28:19.175Z,21.90
2022-12-18T09:30:49.657Z,24.45
2022-12-18T09:33:17.683Z,25.27
2022-12-18T09:35:45.765Z,22.95
2022-12-18T09:38:15.031Z,21.48
2022-12-18T09:40:53.890Z,18.90
2022-12-18T09:43:54.964Z,18.40
2022-12-18T09:46:30.185Z,18.33
2022-12-18T09:49:03.688Z,23.90
2022-12-18T09:51:38.250Z,22.42
2022-12-18T09:54:27.235Z,25.27
2022-12-18T09:56:54.921Z,20.85
2022-12-18T09:59:43.064Z,18.23
2022-12-18T10:02:19.540Z,17.20
2022-12-18T10:05:11.362Z,16.77
2022-12-18T10:07:59.592Z,17.75
2022-12-18T10:10:53.673Z,17.73
2022-12-18T10:13:40.268Z,19.00
2022-12-18T10:16:47.093Z,17.02
2022-12-18T10:19:40.352Z,18.38
2022-12-18T10:22:25.713Z,19.23
2022-12-18T10:25:25.812Z,16.70
2022-12-18T10:27:57.028Z,22.63
2022-12-18T10:30:25.954Z,20.85
2022-12-18T10:32:53.201Z,19.45
2022-12-18T10:35:23.436Z,21.60
2022-12-18T10:38:15.131Z,18.40
2022-12-18T10:41:06.290Z,21.58
2022-12-18T10:43:37.127Z,22.17
2022-12-18T10:46:10.171Z,19.67
2022-12-18T10:48:42.238Z,25.17
2022-12-18T10:51:12.335Z,23.85
2022-12-18T10:53:43.593Z,25.65
2022-12-18T10:56:10.903Z,23.65
2022-12-18T10:58:39.712Z,22.08
2022-12-18T11:01:18.759Z,28.35
2022-12-18T11:04:02.955Z,24.98
2022-12-18T11:06:30.651Z,23.93
2022-12-18T11:09:30.444Z,22.65
2022-12-18T11:12:01.067Z,20.40
2022-12-18T11:14:47.356Z,21.98
2022-12-18T11:17:32.812Z,22.98
2022-12-18T11:20:02.071Z,23.85
2022-12-18T11:22:32.348Z,23.73
2022-12-18T11:27:58.845Z,26.55
2022-12-18T11:30:32.575Z,22.55
2022-12-18T11:33:20.236Z,21.17
2022-12-18T11:36:04.658Z,22.33
2022-12-18T11:38:35.969Z,18.45
2022-12-18T11:42:06.673Z,17.50
2022-12-18T11:44:39.737Z,20.73
2022-12-18T11:47:40.424Z,23.58
2022-12-18T11:50:16.847Z,22.92
2022-12-18T11:52:43.792Z,24.15
2022-12-18T11:55:28.637Z,23.70
2022-12-18T11:58:04.219Z,19.05
2022-12-18T12:00:31.552Z,19.42
2022-12-18T12:03:27.899Z,21.35
2022-12-18T12:06:03.962Z,20.50
2022-12-18T12:08:59.344Z,21.23
2022-12-18T12:11:44.602Z,21.98
2022-12-18T12:14:17.149Z,24.00
2022-12-18T12:17:01.488Z,22.80
2022-12-18T12:19:30.977Z,23.58
2022-12-18T12:22:21.635Z,22.10
2022-12-18T12:25:19.437Z,19.67
2022-12-18T12:28:05.218Z,20.45
2022-12-18T12:31:00.110Z,18.83
2022-12-18T12:34:11.622Z,22.73
2022-12-18T12:37:12.868Z,22.95
2022-12-18T12:39:43.062Z,21.63
2022-12-18T12:42:43.847Z,24.05
2022-12-18T12:45:21.463Z,24.30
2022-12-18T12:47:50.344Z,21.08
2022-12-18T12:50:20.044Z,23.27
2022-12-18T12:52:56.600Z,26.17
2022-12-18T12:55:26.738Z,23.85
2022-12-18T12:58:01.826Z,22.67
2022-12-18T13:00:37.384Z,25.00
2022-12-18T13:03:10.045Z,22.13
2022-12-18T13:05:54.956Z,24.05
2022-12-18T13:08:28.017Z,23.20
2022-12-18T13:11:19.904Z,21.92
2022-12-18T13:13:56.507Z,22.08
2022-12-18T13:16:28.474Z,20.92
2022-12-18T13:19:00.271Z,19.52
2022-12-18T13:21:33.468Z,17.25
2022-12-18T13:24:23.585Z,22.55
2022-12-18T13:26:50.464Z,22.33
2022-12-18T13:29:46.384Z,22.15
2022-12-18T13:32:27.378Z,20.38
2022-12-18T13:35:22.680Z,19.05
2022-12-18T13:37:54.429Z,19.97
2022-12-18T13:40:39.974Z,22.92
2022-12-18T13:43:45.843Z,20.33
2022-12-18T13:46:24.264Z,21.50
2022-12-18T13:48:56.889Z,18.80
2022-12-18T13:51:26.147Z,19.38
2022-12-18T13:53:58.215Z,22.00
2022-12-18T13:56:29.358Z,18.08
2022-12-18T13:59:22.987Z,18.15
2022-12-18T14:01:55.552Z,17.00
2022-12-18T14:04:22.474Z,17.30
2022-12-18T14:06:52.375Z,16.10
2022-12-18T14:09:28.024Z,17.73
2022-12-18T14:12:18.063Z,19.53
2022-12-18T14:14:48.170Z,19.33
2022-12-18T14:17:16.770Z,16.38
2022-12-18T14:19:52.505Z,18.60
2022-12-18T14:22:30.424Z,17.27
2022-12-18T14:25:20.607Z,18.35
2022-12-18T14:27:53.862Z,17.48
2022-12-18T14:30:42.766Z,18.48
2022-12-18T14:33:09.552Z,16.38
2022-12-18T14:35:58.207Z,19.30
2022-12-18T14:38:24.997Z,17.02
2022-12-18T14:40:57.869Z,15.10
2022-12-18T14:43:25.506Z,17.33
2022-12-18T14:45:52.851Z,17.70
2022-12-18T14:48:37.847Z,16.95
2022-12-18T14:51:26.736Z,16.63
2022-12-18T14:54:08.829Z,18.67
2022-12-18T14:56:37.875Z,19.92
2022-12-18T14:59:13.495Z,21.10
2022-12-18T15:01:48.675Z,21.80
2022-12-18T15:04:26.989Z,20.63
2022-12-18T15:07:05.975Z,20.52
2022-12-18T15:09:34.098Z,19.70
2022-12-18T15:12:02.147Z,18.23
2022-12-18T15:14:42.335Z,17.60
2022-12-18T15:17:19.980Z,17.48
2022-12-18T15:19:47.755Z,16.95
2022-12-18T15:22:37.756Z,18.40
2022-12-18T15:25:32.768Z,21.58
2022-12-18T15:28:00.331Z,21.42
2022-12-18T15:30:27.378Z,18.77
2022-12-18T15:33:23.125Z,17.98
2022-12-18T15:35:58.612Z,17.20
2022-12-18T15:38:25.386Z,17.15
2022-12-18T15:40:53.168Z,16.43
2022-12-18T15:43:35.194Z,15.40
2022-12-18T15:46:07.415Z,17.13
2022-12-18T15:48:41.906Z,16.85
2022-12-18T15:51:22.595Z,17.33
2022-12-18T15:53:52.654Z,17.77
2022-12-18T15:56:38.908Z,18.33
2022-12-18T15:59:14.414Z,17.05
2022-12-18T16:01:42.954Z,19.00
2022-12-18T16:04:14.200Z,17.38
2022-12-18T16:07:12.782Z,17.65
2022-12-18T16:09:30.293Z,16.45
2022-12-18T16:11:57.149Z,17.30
2022-12-18T16:14:26.929Z,17.42
2022-12-18T16:16:57.187Z,19.02
2022-12-18T16:19:24.899Z,17.20
2022-12-18T16:21:54.463Z,17.35
2022-12-18T16:24:30.224Z,16.83
2022-12-18T16:27:00.149Z,19.65
2022-12-18T16:29:29.033Z,22.40
2022-12-18T16:32:00.315Z,21.33
2022-12-18T16:34:35.212Z,18.73
2022-12-18T16:37:06.435Z,18.52
2022-12-18T16:39:35.378Z,19.05
2022-12-18T16:42:06.436Z,20.88
2022-12-18T16:44:36.400Z,19.95
2022-12-18T16:47:04.597Z,20.60
2022-12-18T16:49:31.924Z,19.27
2022-12-18T16:51:59.041Z,20.70
2022-12-18T16:54:25.844Z,19.70
2022-12-18T16:56:52.859Z,19.30
2022-12-18T16:59:20.036Z,18.85
2022-12-18T17:01:47.494Z,18.00
2022-12-18T17:04:15.114Z,16.23
2022-12-18T17:06:44.599Z,20.17
2022-12-18T17:09:16.807Z,25.10
2022-12-18T17:11:44.258Z,19.63
2022-12-18T17:14:16.964Z,24.20
2022-12-18T17:16:44.192Z,24.27
2022-12-18T17:19:17.064Z,26.48
2022-12-18T17:21:48.268Z,26.35
2022-12-18T17:24:15.742Z,25.65
2022-12-18T17:26:44.422Z,22.88
2022-12-18T17:29:20.051Z,21.10
2022-12-18T17:31:48.300Z,22.23
2022-12-18T17:34:15.777Z,20.25
2022-12-18T17:36:43.047Z,26.05
2022-12-18T17:39:18.725Z,23.02
2022-12-18T17:41:45.744Z,20.13
2022-12-18T17:44:13.203Z,20.77
2022-12-18T17:46:42.627Z,18.95
2022-12-18T17:49:10.214Z,22.40
2022-12-18T17:51:37.150Z,25.15
2022-12-18T17:54:05.414Z,27.80
2022-12-18T17:56:32.847Z,28.92
2022-12-18T17:59:00.330Z,27.90
2022-12-18T18:01:27.419Z,23.88
2022-12-18T18:03:57.664Z,21.48
2022-12-18T18:06:24.699Z,25.40
2022-12-18T18:08:52.240Z,22.25
2022-12-18T18:11:40.271Z,20.92
2022-12-18T18:14:19.048Z,19.27
2022-12-18T18:16:51.985Z,17.80
2022-12-18T18:19:21.895Z,18.90
2022-12-18T18:21:52.025Z,16.95
2022-12-18T18:24:23.198Z,16.58
2022-12-18T18:26:50.354Z,16.35
2022-12-18T18:29:23.679Z,19.88
2022-12-18T18:31:53.075Z,22.17
2022-12-18T18:34:22.776Z,20.85
2022-12-18T18:36:49.669Z,20.55
2022-12-18T18:39:16.663Z,18.95
2022-12-18T18:41:46.856Z,19.88
2022-12-18T18:44:18.717Z,17.73
2022-12-18T18:46:45.617Z,21.27
2022-12-18T18:49:13.744Z,17.67
2022-12-18T18:51:41.498Z,18.73
2022-12-18T18:54:09.491Z,20.23
2022-12-18T18:59:27.504Z,18.98
2022-12-18T19:01:59.887Z,18.17
2022-12-18T19:04:31.046Z,19.20
2022-12-18T19:06:57.855Z,18.83
2022-12-18T19:09:24.932Z,19.83
2022-12-18T19:12:21.746Z,22.20
2022-12-18T19:14:48.635Z,22.58
2022-12-18T19:17:15.939Z,21.00
2022-12-18T19:19:43.073Z,23.77
2022-12-18T19:22:10.912Z,21.00
2022-12-18T19:24:38.067Z,18.67
2022-12-18T19:27:05.029Z,21.52
2022-12-18T19:29:31.967Z,19.75
2022-12-18T19:31:59.052Z,18.13
2022-12-18T19:34:25.896Z,21.25
2022-12-18T19:36:57.914Z,18.08
2022-12-18T19:39:26.602Z,22.83
2022-12-18T19:41:53.402Z,22.23
2022-12-18T19:44:21.091Z,19.80
2022-12-18T19:46:51.416Z,26.33
2022-12-18T19:49:18.458Z,20.05
2022-12-18T19:51:45.804Z,20.83
2022-12-18T19:54:17.526Z,20.42
2022-12-18T19:56:45.538Z,16.80
2022-12-18T19:59:12.689Z,15.82
2022-12-18T20:01:39.850Z,16.30
2022-12-18T20:04:07.093Z,19.73
2022-12-18T20:06:45.439Z,17.90
2022-12-18T20:09:12.220Z,19.60
2022-12-18T20:11:41.290Z,22.00
2022-12-18T20:14:12.608Z,21.90
2022-12-18T20:16:40.360Z,23.88
2022-12-18T20:19:07.732Z,25.45
2022-12-18T20:21:35.055Z,22.65
2022-12-18T20:24:02.124Z,19.60
2022-12-18T20:26:29.267Z,18.73
2022-12-18T20:28:56.709Z,18.05
2022-12-18T20:31:24.289Z,18.45
2022-12-18T20:33:52.220Z,18.13
2022-12-18T20:36:25.822Z,17.60
2022-12-18T20:38:57.222Z,18.90
2022-12-18T20:41:27.336Z,25.67
2022-12-18T20:44:05.596Z,25.42
2022-12-18T20:46:35.323Z,25.70
2022-12-18T20:49:03.357Z,26.60
2022-12-18T20:51:30.594Z,23.93
2022-12-18T20:53:59.578Z,25.83
2022-12-18T20:56:30.620Z,23.88
2022-12-18T20:58:58.883Z,20.80
2022-12-18T21:01:27.512Z,18.98
2022-12-18T21:03:54.509Z,20.67
2022-12-18T21:06:24.297Z,20.08
2022-12-18T21:08:51.213Z,26.13
2022-12-18T21:11:39.437Z,23.23
2022-12-18T21:14:18.264Z,22.55
2022-12-18T21:16:45.673Z,21.02
2022-12-18T21:19:14.858Z,21.13
2022-12-18T21:21:42.837Z,21.63
2022-12-18T21:24:10.515Z,19.90
2022-12-18T21:26:44.884Z,22.50
2022-12-18T21:29:15.359Z,21.60
2022-12-18T21:31:42.826Z,21.80
2022-12-18T21:34:22.319Z,22.45
2022-12-18T21:36:49.609Z,30.03
2022-12-18T21:39:17.186Z,33.50
2022-12-18T21:42:03.223Z,24.38
2022-12-18T21:44:30.476Z,25.58
2022-12-18T21:47:08.095Z,20.65
2022-12-18T21:49:39.456Z,20.33
2022-12-18T21:52:06.354Z,20.95
2022-12-18T21:54:34.116Z,20.58
2022-12-18T21:57:03.003Z,20.60
2022-12-18T21:59:30.779Z,21.13
2022-12-18T22:02:00.742Z,24.15
2022-12-18T22:04:28.459Z,23.75
2022-12-18T22:06:55.832Z,24.80
2022-12-18T22:09:25.221Z,22.42
2022-12-18T22:11:53.137Z,23.05
2022-12-18T22:14:21.038Z,21.48
2022-12-18T22:16:48.217Z,21.87
2022-12-18T22:19:16.543Z,20.23
2022-12-18T22:21:46.572Z,18.98
2022-12-18T22:24:25.450Z,26.05
2022-12-18T22:26:56.704Z,27.25
2022-12-18T22:29:47.781Z,26.27
2022-12-18T22:32:29.079Z,22.13
2022-12-18T22:35:08.051Z,21.75
2022-12-18T22:37:36.984Z,20.20
2022-12-18T22:40:05.501Z,18.10
2022-12-18T22:42:33.005Z,20.55
2022-12-18T22:45:00.318Z,22.33
2022-12-18T22:47:30.190Z,20.80
2022-12-18T22:49:57.789Z,19.60
2022-12-18T22:52:24.972Z,18.55
2022-12-18T22:54:53.301Z,20.95
2022-12-18T22:57:24.039Z,25.03
2022-12-18T22:59:51.576Z,23.55
2022-12-18T23:02:19.000Z,24.75
2022-12-18T23:04:47.387Z,22.02
2022-12-18T23:07:14.727Z,21.95
2022-12-18T23:09:41.483Z,20.63
2022-12-18T23:12:13.761Z,21.27
2022-12-18T23:14:40.699Z,19.95
2022-12-18T23:17:07.471Z,16.80
2022-12-18T23:19:34.388Z,17.58
2022-12-18T23:22:06.057Z,16.35
2022-12-18T23:24:35.493Z,20.60
2022-12-18T23:27:02.349Z,20.55
2022-12-18T23:29:32.456Z,18.50
2022-12-18T23:31:59.317Z,16.15
2022-12-18T23:34:26.236Z,16.52
2022-12-18T23:36:56.018Z,21.15
2022-12-18T23:39:29.398Z,22.55
2022-12-18T23:42:00.762Z,20.38
2022-12-18T23:44:28.284Z,19.63
2022-12-18T23:46:55.772Z,19.15
2022-12-18T23:49:23.046Z,19.70
2022-12-18T23:51:50.219Z,17.37
2022-12-18T23:54:17.095Z,16.75
2022-12-18T23:56:47.939Z,19.20
2022-12-18T23:59:14.751Z,16.88
